Time;durP1;ratioP1;P1;durP2;ratioP2;P2;SDS_P1;SDS_P2;PMS_P1;PMS_P2;Temp;Humidity;BMP_temperature;BMP_pressure;BME280_temperature;BME280_humidity;BME280_pressure;Samples;Min_cycle;Max_cycle;Signal;HPM_P1;HPM_P2
2022/02/01 00:01:29;;;;;;;15.23;8.15;;;3.80;99.90;;;;;;4913619;29;20036;-80
2022/02/01 00:11:47;;;;;;;10.43;8.02;;;3.50;99.90;;;;;;4951461;29;20022;-81
2022/02/01 02:17:52;;;;;;;7.07;3.40;;;4.20;99.90;;;;;;4921659;29;20588;-82
2022/02/01 02:34:57;;;;;;;6.65;3.38;;;3.30;99.90;;;;;;5080925;28;20039;-83
2022/02/01 02:41:48;;;;;;;6.13;3.85;;;3.30;99.90;;;;;;5016664;28;20041;-82
2022/02/01 02:52:29;;;;;;;;;;;;;;;;;;;;;
2022/02/01 04:49:47;;;;;;;4.25;2.33;;;2.20;99.90;;;;;;5014440;28;20048;-79
2022/02/01 04:52:32;;;;;;;6.60;2.33;;;2.10;99.90;;;;;;4988345;28;20066;-79
2022/02/01 05:23:17;;;;;;;6.20;4.28;;;3.00;99.90;;;;;;4894150;29;20104;-80
2022/02/01 05:25:46;;;;;;;33.88;17.92;;;3.00;99.90;;;;;;4887096;29;20044;-80
2022/02/01 05:28:36;;;;;;;54.97;27.95;;;3.00;99.90;;;;;;4886878;28;20393;-80
2022/02/01 05:31:34;;;;;;;46.30;27.58;;;2.90;99.90;;;;;;5031787;28;20033;-80
2022/02/01 05:34:55;;;;;;;;;;;;;;;;;;;;;
2022/02/01 05:51:14;;;;;;;4.15;2.40;;;2.80;99.90;;;;;;4949991;28;20027;-80
2022/02/01 05:54:03;;;;;;;8.35;3.25;;;2.70;99.90;;;;;;4912331;29;20036;-80
2022/02/01 05:56:58;;;;;;;5.32;4.07;;;2.60;99.90;;;;;;4958148;28;20130;-80
2022/02/01 05:59:53;;;;;;;2.85;2.50;;;2.50;99.90;;;;;;5001136;28;20034;-80
2022/02/01 06:02:31;;;;;;;3.03;2.13;;;2.40;99.90;;;;;;4976491;28;20022;-80
2022/02/01 06:05:21;;;;;;;3.50;2.50;;;2.30;99.90;;;;;;4978047;28;20406;-80
2022/02/01 06:07:59;;;;;;;8.65;3.22;;;2.30;99.90;;;;;;4996700;28;20030;-80
2022/02/01 06:10:42;;;;;;;5.22;3.30;;;2.20;99.90;;;;;;5022277;28;20507;-80
2022/02/01 06:17:17;;;;;;;5.90;2.72;;;2.10;99.90;;;;;;5030832;28;19909;-80
2022/02/01 06:23:23;;;;;;;5.05;2.63;;;1.90;99.90;;;;;;4944273;29;20390;-79
2022/02/01 06:26:51;;;;;;;;;;;;;;;;;;;;;
2022/02/01 06:30:07;;;;;;;4.57;3.20;;;1.90;99.90;;;;;;4936889;29;20038;-79
2022/02/01 06:32:45;;;;;;;6.75;3.17;;;1.90;99.90;;;;;;4931520;29;20051;-80
2022/02/01 06:35:11;;;;;;;3.95;2.67;;;2.00;99.90;;;;;;4939864;29;20171;-79
2022/02/01 06:38:21;;;;;;;5.88;3.22;;;2.10;99.90;;;;;;5020252;28;20399;-80
2022/02/01 06:40:54;;;;;;;9.00;3.03;;;2.10;99.90;;;;;;5059053;28;20053;-80
2022/02/01 06:44:19;;;;;;;3.58;2.47;;;2.10;99.90;;;;;;5079847;28;20110;-80
2022/02/01 06:46:34;;;;;;;4.68;2.92;;;2.10;99.90;;;;;;5071967;28;20082;-80
2022/02/01 06:49:00;;;;;;;8.05;3.15;;;2.20;99.90;;;;;;5078233;28;20036;-80
2022/02/01 06:51:28;;;;;;;5.30;2.70;;;2.30;99.90;;;;;;5078736;28;20419;-79
2022/02/01 06:53:56;;;;;;;3.75;2.85;;;2.40;99.90;;;;;;5074120;28;20047;-80
2022/02/01 06:59:42;;;;;;;4.13;3.08;;;2.60;99.90;;;;;;4997721;28;20037;-80
2022/02/01 07:02:11;;;;;;;5.28;2.80;;;2.80;99.90;;;;;;5070375;28;20140;-79
2022/02/01 07:04:51;;;;;;;2.83;2.10;;;2.90;99.90;;;;;;5060954;28;20428;-80
2022/02/01 07:07:46;;;;;;;10.52;2.40;;;3.00;99.90;;;;;;5086074;28;20020;-80
2022/02/01 07:10:12;;;;;;;8.00;2.75;;;3.20;99.90;;;;;;5071048;28;20103;-82
2022/02/01 07:12:50;;;;;;;4.18;2.50;;;3.30;99.90;;;;;;5086879;28;20032;-81
2022/02/01 07:15:15;;;;;;;4.05;1.67;;;3.40;99.90;;;;;;5074077;28;20510;-82
2022/02/01 07:17:56;;;;;;;3.92;2.53;;;3.70;99.90;;;;;;5092481;28;20028;-88
2022/02/01 07:20:22;;;;;;;3.58;2.13;;;3.80;99.90;;;;;;5086534;28;20028;-86
2022/02/01 07:24:29;;;;;;;2.72;1.80;;;4.00;99.90;;;;;;5085893;28;20106;-86
2022/02/01 07:26:56;;;;;;;4.72;1.90;;;4.30;99.90;;;;;;5017577;28;20135;-85
2022/02/01 07:29:25;;;;;;;5.43;1.77;;;4.50;99.90;;;;;;5030021;28;20037;-86
2022/02/01 07:31:54;;;;;;;4.18;2.55;;;4.70;99.90;;;;;;5077471;28;20556;-85
2022/02/01 07:34:26;;;;;;;3.58;2.50;;;4.80;99.90;;;;;;5087107;28;20631;-83
2022/02/01 07:36:55;;;;;;;30.52;11.95;;;4.90;99.90;;;;;;5083209;28;20107;-85
2022/02/01 07:39:24;;;;;;;38.95;14.35;;;5.10;99.90;;;;;;5080715;28;20693;-83
2022/02/01 07:41:53;;;;;;;12.57;5.53;;;5.10;99.90;;;;;;5067075;28;20381;-83
2022/02/01 07:44:18;;;;;;;3.70;2.47;;;5.20;99.90;;;;;;5067737;28;20487;-82
2022/02/01 07:46:47;;;;;;;4.97;2.80;;;5.30;99.90;;;;;;5063328;28;20067;-84
2022/02/01 07:49:21;;;;;;;19.17;8.98;;;5.40;99.90;;;;;;5066806;28;20025;-83
2022/02/01 07:51:47;;;;;;;11.13;6.15;;;5.50;99.90;;;;;;5063735;28;20059;-83
2022/02/01 07:54:29;;;;;;;11.68;4.15;;;5.60;99.90;;;;;;5059013;28;20072;-90
2022/02/01 07:56:55;;;;;;;14.68;6.72;;;5.70;99.90;;;;;;5061236;28;20495;-88
2022/02/01 07:59:30;;;;;;;11.75;5.97;;;5.80;99.90;;;;;;5055212;28;20606;-88
2022/02/01 08:01:56;;;;;;;41.47;14.40;;;5.90;99.90;;;;;;5050692;28;20035;-88
2022/02/01 08:04:31;;;;;;;10.60;5.78;;;6.00;99.90;;;;;;5051130;28;20031;-80
2022/02/01 08:07:00;;;;;;;14.43;5.55;;;6.00;99.90;;;;;;5069924;28;20020;-81
2022/02/01 08:09:33;;;;;;;14.82;7.43;;;6.10;99.90;;;;;;5070953;28;20032;-87
2022/02/01 08:12:10;;;;;;;12.45;8.27;;;6.10;99.90;;;;;;5050130;28;20119;-85
2022/02/01 08:20:24;;;;;;;8.15;4.95;;;6.30;99.90;;;;;;5070044;28;20101;-85
2022/02/01 08:25:36;;;;;;;8.32;6.00;;;6.30;99.90;;;;;;5068781;28;20525;-85
2022/02/01 08:34:22;;;;;;;8.73;4.22;;;6.40;99.90;;;;;;5031527;28;20058;-85
2022/02/01 08:37:46;;;;;;;;;;;;;;;;;;;;;
2022/02/01 08:44:27;;;;;;;11.20;4.85;;;6.90;99.90;;;;;;4984049;28;20038;-86
2022/02/01 08:47:50;;;;;;;8.82;3.60;;;7.00;99.90;;;;;;4969641;28;20038;-85
2022/02/01 08:50:20;;;;;;;9.98;4.68;;;7.20;99.90;;;;;;4952495;28;20043;-84
2022/02/01 08:53:46;;;;;;;12.00;5.28;;;7.30;99.90;;;;;;4978768;28;20047;-84
2022/02/01 08:56:06;;;;;;;12.52;5.50;;;7.30;99.90;;;;;;5055393;28;20044;-83
2022/02/01 08:58:35;;;;;;;14.40;5.30;;;7.40;99.90;;;;;;5055721;28;20021;-84
2022/02/01 09:03:58;;;;;;;;;;;7.40;99.90;;;;;;5067977;28;20083;-86
2022/02/01 09:06:41;;;;;;;11.63;3.70;;;7.50;99.90;;;;;;5065694;28;19908;-86
2022/02/01 09:09:16;;;;;;;11.13;4.18;;;7.50;99.90;;;;;;5043519;28;20032;-86
2022/02/01 09:11:45;;;;;;;10.40;4.75;;;7.60;99.90;;;;;;5043411;28;20041;-86
2022/02/01 09:14:32;;;;;;;10.05;4.65;;;7.70;99.90;;;;;;5052781;28;20065;-86
2022/02/01 09:17:06;;;;;;;9.20;4.50;;;7.70;99.90;;;;;;5059803;28;20078;-86
2022/02/01 09:20:05;;;;;;;11.07;4.90;;;7.90;99.90;;;;;;5049543;28;20032;-82
2022/02/01 09:22:38;;;;;;;5.53;3.30;;;8.00;99.90;;;;;;5065019;28;20483;-84
2022/02/01 09:25:07;;;;;;;13.32;4.25;;;8.20;99.90;;;;;;5051105;28;20050;-86
2022/02/01 09:27:37;;;;;;;10.07;3.92;;;8.50;99.90;;;;;;5054142;28;20438;-89
2022/02/01 09:30:03;;;;;;;11.35;3.20;;;8.60;99.90;;;;;;5051965;28;20025;-91
2022/02/01 09:32:35;;;;;;;10.75;2.83;;;8.70;99.90;;;;;;5052596;28;20868;-91
2022/02/01 09:35:02;;;;;;;7.47;2.25;;;8.70;99.90;;;;;;5046358;28;20032;-86
2022/02/01 09:37:30;;;;;;;5.28;2.10;;;8.80;99.90;;;;;;5067914;28;20025;-84
2022/02/01 09:40:35;;;;;;;3.22;1.33;;;8.90;99.90;;;;;;5067236;28;20063;-88
2022/02/01 09:43:04;;;;;;;2.10;1.30;;;9.10;99.90;;;;;;5086807;28;20040;-88
2022/02/01 09:46:00;;;;;;;2.10;1.20;;;9.30;97.60;;;;;;5087487;28;20051;-88
2022/02/01 09:48:31;;;;;;;3.75;1.27;;;9.40;98.50;;;;;;5065901;28;20368;-87
2022/02/01 09:51:02;;;;;;;4.15;1.40;;;9.50;97.00;;;;;;5084907;28;20032;-87
2022/02/01 09:54:07;;;;;;;5.03;1.88;;;9.60;96.90;;;;;;5066722;28;20059;-86
2022/02/01 09:56:40;;;;;;;4.57;2.20;;;9.50;95.30;;;;;;5085501;28;20050;-86
2022/02/01 09:59:21;;;;;;;8.60;2.00;;;9.60;95.20;;;;;;5066987;28;20020;-88
2022/02/01 10:02:19;;;;;;;4.85;2.28;;;9.70;94.30;;;;;;5064927;28;20032;-88
2022/02/01 10:05:21;;;;;;;1.83;1.38;;;9.80;94.80;;;;;;5087218;28;20022;-86
2022/02/01 10:11:14;;;;;;;6.60;2.22;;;10.20;93.40;;;;;;5085901;28;20035;-88
2022/02/01 10:13:44;;;;;;;5.20;1.75;;;10.40;90.80;;;;;;5066564;28;20814;-86
2022/02/01 10:16:30;;;;;;;1.17;0.90;;;10.60;87.50;;;;;;5070652;28;20107;-86
2022/02/01 10:25:03;;;;;;;0.93;0.85;;;11.10;73.90;;;;;;5070755;28;20036;-86
2022/02/01 10:27:39;;;;;;;0.82;0.77;;;11.10;69.50;;;;;;5068231;28;20024;-89
2022/02/01 10:30:35;;;;;;;2.25;1.08;;;11.20;68.90;;;;;;5066337;28;20078;-87
2022/02/01 10:36:38;;;;;;;2.80;1.95;;;11.40;64.50;;;;;;5079293;28;20043;-90
2022/02/01 10:39:46;;;;;;;0.68;0.68;;;11.40;63.90;;;;;;4998953;28;20505;-84
2022/02/01 10:42:42;;;;;;;3.25;1.27;;;11.50;61.80;;;;;;5083350;28;20048;-85
2022/02/01 10:46:04;;;;;;;1.13;1.02;;;11.50;63.10;;;;;;4994483;28;20026;-86
2022/02/01 10:48:31;;;;;;;0.60;0.50;;;11.60;62.90;;;;;;5012078;28;20042;-85
2022/02/01 10:51:30;;;;;;;0.60;0.28;;;11.80;63.00;;;;;;5042784;28;20338;-84
2022/02/01 10:54:35;;;;;;;1.20;1.10;;;11.70;61.50;;;;;;5046626;28;20080;-83
2022/02/01 10:57:04;;;;;;;1.38;0.60;;;11.80;60.50;;;;;;5028298;28;20120;-81
2022/02/01 10:59:42;;;;;;;0.35;0.35;;;11.80;59.80;;;;;;5050947;28;20033;-83
2022/02/01 11:02:47;;;;;;;0.68;0.50;;;11.80;57.90;;;;;;5051263;28;20032;-83
2022/02/01 11:05:27;;;;;;;0.68;0.68;;;11.80;58.80;;;;;;5024088;28;20179;-82
2022/02/01 11:07:54;;;;;;;4.18;1.58;;;11.80;57.10;;;;;;5042019;28;20127;-83
2022/02/01 11:11:07;;;;;;;6.07;2.30;;;11.80;65.20;;;;;;5048366;28;20255;-83
2022/02/01 11:14:17;;;;;;;1.65;1.50;;;11.30;81.30;;;;;;5027914;28;20111;-83
2022/02/01 11:16:50;;;;;;;3.22;1.48;;;10.90;83.20;;;;;;5061946;28;20046;-83
2022/02/01 11:19:16;;;;;;;5.13;1.48;;;10.90;80.50;;;;;;5076220;28;20024;-84
2022/02/01 11:21:48;;;;;;;3.47;1.40;;;11.00;80.20;;;;;;5082955;28;20452;-82
2022/02/01 11:24:34;;;;;;;2.17;1.60;;;11.10;79.10;;;;;;5087789;28;20074;-83
2022/02/01 11:30:57;;;;;;;2.60;1.67;;;11.10;80.80;;;;;;5018997;28;20109;-84
2022/02/01 11:34:09;;;;;;;0.70;0.70;;;11.30;83.40;;;;;;5006276;28;20084;-84
2022/02/01 11:36:41;;;;;;;4.60;1.83;;;11.20;72.90;;;;;;5026319;28;20108;-81
2022/02/01 11:43:07;;;;;;;3.83;2.40;;;11.30;98.20;;;;;;5011782;28;19910;-86
2022/02/01 11:45:50;;;;;;;4.55;2.17;;;10.50;99.90;;;;;;4917125;29;20134;-87
2022/02/01 11:48:33;;;;;;;4.22;2.28;;;10.20;99.90;;;;;;4920585;29;20550;-84
2022/02/01 11:51:10;;;;;;;4.90;2.72;;;10.20;99.90;;;;;;4928108;28;20107;-82
2022/02/01 11:53:46;;;;;;;3.88;2.92;;;10.30;99.90;;;;;;4925785;29;20094;-83
2022/02/01 11:56:17;;;;;;;3.20;2.00;;;10.40;99.90;;;;;;4943203;28;20030;-82
2022/02/01 12:02:22;;;;;;;5.70;2.42;;;10.80;94.30;;;;;;5067034;28;20162;-81
2022/02/01 12:08:37;;;;;;;3.88;2.20;;;11.60;99.90;;;;;;5010183;28;20558;-83
2022/02/01 12:11:08;;;;;;;3.55;2.60;;;11.80;99.90;;;;;;5052578;28;20051;-83
2022/02/01 12:13:43;;;;;;;5.30;3.10;;;11.60;99.90;;;;;;5054946;28;20521;-82
2022/02/01 12:16:16;;;;;;;6.28;2.90;;;11.50;99.90;;;;;;5086474;28;20165;-84
2022/02/01 12:19:02;;;;;;;2.30;2.03;;;11.60;99.90;;;;;;5064974;28;20085;-83
2022/02/01 12:21:42;;;;;;;3.42;2.30;;;11.70;93.50;;;;;;5070400;28;20502;-84
2022/02/01 12:24:11;;;;;;;3.00;2.33;;;12.00;91.90;;;;;;5056357;28;20059;-83
2022/02/01 12:26:40;;;;;;;5.22;2.50;;;12.30;89.90;;;;;;5065370;28;20020;-84
2022/02/01 12:29:17;;;;;;;3.72;2.50;;;12.50;83.90;;;;;;5042285;28;20021;-84
2022/02/01 12:31:47;;;;;;;8.30;2.55;;;12.70;81.60;;;;;;5052292;28;20223;-83
2022/02/01 12:34:15;;;;;;;6.95;2.10;;;13.40;77.40;;;;;;5061930;28;20221;-81
2022/02/01 12:36:53;;;;;;;3.92;2.22;;;14.50;73.70;;;;;;5062665;28;20116;-81
2022/02/01 12:39:33;;;;;;;3.45;2.30;;;15.90;62.60;;;;;;5038710;28;20025;-81
2022/02/01 12:42:13;;;;;;;2.55;2.00;;;17.30;59.30;;;;;;5065159;28;20032;-81
2022/02/01 12:47:30;;;;;;;5.35;2.50;;;17.20;57.60;;;;;;5070557;28;20101;-81
2022/02/01 12:50:20;;;;;;;2.55;2.17;;;19.90;53.50;;;;;;5070186;28;20028;-82
2022/02/01 12:53:31;;;;;;;6.18;2.70;;;22.10;49.20;;;;;;5063193;28;20021;-84
2022/02/01 12:55:59;;;;;;;3.95;2.28;;;24.00;44.40;;;;;;5054369;28;20053;-81
2022/02/01 12:59:05;;;;;;;5.47;2.10;;;24.90;41.40;;;;;;5065222;28;20028;-80
2022/02/01 13:01:37;;;;;;;4.63;2.35;;;25.30;40.50;;;;;;5065172;28;20044;-80
2022/02/01 13:04:04;;;;;;;4.00;2.25;;;25.20;38.50;;;;;;5063735;28;20033;-81
2022/02/01 13:06:39;;;;;;;4.72;2.40;;;25.50;38.20;;;;;;5061319;28;20028;-79
2022/02/01 13:14:53;;;;;;;3.90;2.50;;;26.00;37.10;;;;;;5065279;28;20075;-80
2022/02/01 13:17:40;;;;;;;2.47;1.98;;;26.10;36.60;;;;;;5063132;28;20640;-80
2022/02/01 13:20:20;;;;;;;4.65;2.00;;;26.10;36.50;;;;;;5059868;28;20035;-79
2022/02/01 13:22:57;;;;;;;2.63;1.90;;;26.30;35.70;;;;;;5060730;28;20133;-79
2022/02/01 13:25:42;;;;;;;3.72;2.08;;;26.10;35.70;;;;;;5062907;28;20025;-80
2022/02/01 13:28:13;;;;;;;2.15;1.73;;;26.30;35.50;;;;;;5054824;28;20034;-79
2022/02/01 13:30:44;;;;;;;6.95;2.20;;;26.20;35.40;;;;;;5062786;28;20017;-77
2022/02/01 13:33:14;;;;;;;19.85;3.35;;;26.30;35.40;;;;;;5057421;28;20013;-80
2022/02/01 13:35:53;;;;;;;21.90;4.03;;;26.70;35.00;;;;;;5061447;28;20063;-80
2022/02/01 13:38:22;;;;;;;62.28;7.63;;;26.90;35.30;;;;;;5055707;28;20021;-80
2022/02/01 13:40:49;;;;;;;27.13;5.25;;;27.10;35.00;;;;;;5065906;28;20032;-77
2022/02/01 13:43:19;;;;;;;22.33;5.30;;;27.30;35.00;;;;;;5072325;28;20044;-79
2022/02/01 13:45:48;;;;;;;4.43;2.08;;;27.80;34.20;;;;;;5084153;28;20024;-79
2022/02/01 13:48:28;;;;;;;5.70;2.05;;;28.30;33.90;;;;;;5086440;28;20016;-78
2022/02/01 13:51:04;;;;;;;9.38;2.50;;;28.60;34.00;;;;;;5083938;28;20032;-79
2022/02/01 13:53:31;;;;;;;3.15;2.30;;;28.90;33.00;;;;;;5086667;28;20860;-82
2022/02/01 13:56:09;;;;;;;4.53;2.20;;;29.10;32.70;;;;;;5080602;28;20028;-82
2022/02/01 13:58:37;;;;;;;2.00;1.80;;;29.30;32.90;;;;;;5086382;28;20025;-79
2022/02/01 14:01:16;;;;;;;3.40;2.13;;;29.70;32.20;;;;;;5080629;28;20028;-80
2022/02/01 14:03:55;;;;;;;2.25;1.90;;;30.10;32.30;;;;;;5089285;28;20048;-80
2022/02/01 14:09:18;;;;;;;4.63;1.95;;;30.00;31.40;;;;;;5092561;28;20039;-80
2022/02/01 14:16:05;;;;;;;3.17;1.45;;;30.10;31.50;;;;;;5076115;28;20037;-80
2022/02/01 14:23:45;;;;;;;1.73;1.60;;;29.80;30.80;;;;;;5079307;28;20015;-80
2022/02/01 14:28:45;;;;;;;2.10;1.60;;;29.40;31.00;;;;;;5087594;28;20304;-81
2022/02/01 14:37:01;;;;;;;12.27;2.70;;;25.80;33.00;;;;;;5073676;28;20024;-80
2022/02/01 14:44:48;;;;;;;6.22;1.92;;;19.90;39.10;;;;;;5080445;28;20182;-80
2022/02/01 14:47:26;;;;;;;6.30;2.47;;;19.00;41.00;;;;;;5070532;28;20467;-80
2022/02/01 14:49:56;;;;;;;3.65;1.80;;;18.70;41.30;;;;;;5081450;28;20078;-81
2022/02/01 14:52:22;;;;;;;2.67;1.75;;;18.10;41.80;;;;;;5086466;28;20069;-80
2022/02/01 14:55:52;;;;;;;2.45;1.75;;;17.80;42.70;;;;;;5072541;28;20043;-79
2022/02/01 15:14:59;;;;;;;21.70;12.98;;;11.40;99.90;;;;;;5080766;28;20721;-80
2022/02/01 15:17:25;;;;;;;21.55;14.02;;;11.40;99.90;;;;;;5063440;28;20056;-79
2022/02/01 15:19:50;;;;;;;19.92;13.68;;;11.50;99.90;;;;;;5081420;28;20051;-78
2022/02/01 15:22:17;;;;;;;24.42;16.33;;;11.30;99.90;;;;;;5068508;28;20024;-79
2022/02/01 15:24:43;;;;;;;32.65;17.58;;;10.80;99.90;;;;;;5062500;28;20086;-78
2022/02/01 15:27:11;;;;;;;37.05;20.83;;;10.70;99.90;;;;;;5085866;28;20561;-78
2022/02/01 15:29:37;;;;;;;34.03;19.73;;;10.90;99.90;;;;;;5075859;28;20599;-79
2022/02/01 15:32:03;;;;;;;33.78;20.27;;;11.10;99.90;;;;;;5085180;28;20028;-81
2022/02/01 15:34:32;;;;;;;30.65;19.75;;;11.20;99.90;;;;;;5080785;28;20082;-78
2022/02/01 15:37:02;;;;;;;30.08;19.40;;;11.00;99.90;;;;;;5084026;28;20024;-79
2022/02/01 15:58:24;;;;;;;35.95;21.00;;;10.20;99.90;;;;;;5077608;28;20062;-79
2022/02/01 16:00:52;;;;;;;32.55;21.65;;;9.80;99.90;;;;;;5064436;28;20078;-78
2022/02/01 16:03:28;;;;;;;42.10;24.90;;;9.50;99.90;;;;;;5085734;28;20024;-79
2022/02/01 16:05:56;;;;;;;34.95;22.95;;;9.30;99.90;;;;;;5089059;28;20029;-79
2022/02/01 16:08:33;;;;;;;33.85;21.25;;;9.10;99.90;;;;;;5085720;28;20016;-81
2022/02/01 16:11:01;;;;;;;31.95;21.35;;;9.00;99.90;;;;;;5081846;28;20089;-78
2022/02/01 16:13:36;;;;;;;30.27;20.45;;;8.80;99.90;;;;;;5059165;28;20478;-80
2022/02/01 16:16:04;;;;;;;38.08;22.40;;;8.80;99.90;;;;;;5089031;28;20032;-79
2022/02/01 16:18:30;;;;;;;36.35;24.00;;;8.70;99.90;;;;;;5085709;28;20051;-80
2022/02/01 16:20:56;;;;;;;40.70;24.80;;;8.70;99.90;;;;;;5081903;28;20059;-78
2022/02/01 16:23:21;;;;;;;32.88;22.70;;;8.60;99.90;;;;;;5077369;28;20107;-79
2022/02/01 16:25:47;;;;;;;34.30;21.60;;;8.50;99.90;;;;;;5084893;28;20031;-78
2022/02/01 16:28:13;;;;;;;43.85;21.75;;;8.50;99.90;;;;;;5099953;28;20076;-76
2022/02/01 16:30:41;;;;;;;34.80;22.25;;;8.40;99.90;;;;;;5080634;28;20471;-77
2022/02/01 16:33:27;;;;;;;34.67;22.35;;;8.40;99.90;;;;;;5074349;28;20082;-79
2022/02/01 16:35:54;;;;;;;36.30;22.55;;;8.40;99.90;;;;;;5088053;28;20052;-82
2022/02/01 16:38:20;;;;;;;52.15;23.92;;;8.30;99.90;;;;;;5070047;28;20020;-82
2022/02/01 16:40:46;;;;;;;41.78;23.58;;;8.20;99.90;;;;;;5082188;28;20394;-83
2022/02/01 16:43:15;;;;;;;63.72;39.60;;;8.10;99.90;;;;;;5076416;28;20111;-83
2022/02/01 16:45:42;;;;;;;56.88;37.03;;;8.00;99.90;;;;;;5088255;28;20047;-82
2022/02/01 16:48:11;;;;;;;38.30;24.50;;;7.90;99.90;;;;;;5074195;28;20073;-83
2022/02/01 16:50:39;;;;;;;44.50;23.33;;;7.80;99.90;;;;;;5062672;28;20051;-83
2022/02/01 16:53:10;;;;;;;38.58;24.00;;;7.80;99.90;;;;;;5083779;28;20497;-84
2022/02/01 16:58:21;;;;;;;35.50;23.50;;;7.60;99.90;;;;;;5082528;28;20095;-81
2022/02/01 17:00:47;;;;;;;41.05;25.17;;;7.50;99.90;;;;;;5090872;28;20040;-81
2022/02/01 17:03:12;;;;;;;51.75;37.33;;;7.50;99.90;;;;;;5071315;28;20032;-81
2022/02/01 17:05:40;;;;;;;45.22;30.25;;;7.40;99.90;;;;;;5092441;28;20016;-82
2022/02/01 17:08:07;;;;;;;66.68;33.95;;;7.40;99.90;;;;;;5089005;28;20024;-82
2022/02/01 17:10:33;;;;;;;35.53;24.80;;;7.40;99.90;;;;;;5083064;28;20111;-82
2022/02/01 17:13:12;;;;;;;42.72;26.67;;;7.30;99.90;;;;;;5088038;28;20031;-81
2022/02/01 17:16:06;;;;;;;41.92;29.27;;;7.40;99.90;;;;;;5070037;28;20032;-81
2022/02/01 17:23:34;;;;;;;38.38;23.88;;;7.60;99.90;;;;;;5084353;28;20554;-81
2022/02/01 17:26:03;;;;;;;36.50;23.55;;;7.50;99.90;;;;;;5089385;28;20069;-83
2022/02/01 17:28:28;;;;;;;34.42;23.77;;;7.60;99.90;;;;;;5072213;28;20028;-82
2022/02/01 17:30:54;;;;;;;40.28;25.42;;;7.60;99.90;;;;;;5069542;28;20078;-82
2022/02/01 17:33:20;;;;;;;41.63;25.27;;;7.60;99.90;;;;;;5086728;28;20132;-81
2022/02/01 17:35:49;;;;;;;40.75;25.98;;;7.60;99.90;;;;;;5065180;28;20036;-81
2022/02/01 17:38:17;;;;;;;36.80;24.83;;;7.70;99.90;;;;;;5085337;28;20478;-81
2022/02/01 17:40:43;;;;;;;35.42;24.35;;;7.70;99.90;;;;;;5081881;28;20572;-82
2022/02/01 17:43:10;;;;;;;36.28;24.27;;;7.70;99.90;;;;;;5073249;28;20092;-81
2022/02/01 17:45:36;;;;;;;44.13;27.27;;;7.60;99.90;;;;;;5066514;28;20034;-82
2022/02/01 17:48:02;;;;;;;41.33;27.45;;;7.60;99.90;;;;;;5086622;28;20103;-82
2022/02/01 17:50:32;;;;;;;42.65;27.00;;;7.50;99.90;;;;;;5082832;28;20154;-82
2022/02/01 17:53:18;;;;;;;45.47;25.88;;;7.40;99.90;;;;;;5071551;28;20032;-83
2022/02/01 17:55:51;;;;;;;46.53;25.70;;;7.30;99.90;;;;;;5066528;28;20486;-82
2022/02/01 17:58:17;;;;;;;39.70;24.05;;;7.30;99.90;;;;;;5088050;28;20375;-83
2022/02/01 18:00:43;;;;;;;34.65;24.35;;;7.20;99.90;;;;;;5084400;28;20398;-82
2022/02/01 18:03:10;;;;;;;36.53;24.13;;;7.10;99.90;;;;;;5082566;28;20059;-82
2022/02/01 18:05:36;;;;;;;42.55;25.35;;;7.00;99.90;;;;;;5089382;28;20061;-82
2022/02/01 18:08:02;;;;;;;36.13;24.00;;;7.00;99.90;;;;;;5092236;28;20026;-82
2022/02/01 18:10:28;;;;;;;34.30;24.27;;;6.90;99.90;;;;;;5088718;28;20036;-82
2022/02/01 18:13:14;;;;;;;35.72;23.05;;;6.90;99.90;;;;;;5067228;28;20059;-81
2022/02/01 18:15:40;;;;;;;39.35;23.40;;;6.90;99.90;;;;;;5068546;28;20395;-81
2022/02/01 18:18:08;;;;;;;35.97;23.13;;;6.70;99.90;;;;;;5072395;28;20016;-81
2022/02/01 18:20:35;;;;;;;40.95;21.40;;;6.60;99.90;;;;;;5086055;28;20169;-81
2022/02/01 18:23:17;;;;;;;;;;;;;;;;;;;;;
2022/02/01 18:25:45;;;;;;;28.50;21.20;;;6.40;99.90;;;;;;5087058;28;20036;-82
2022/02/01 18:28:17;;;;;;;32.03;21.38;;;6.40;99.90;;;;;;5075014;28;20478;-81
2022/02/01 18:30:46;;;;;;;39.72;25.23;;;6.20;99.90;;;;;;5083755;28;20483;-83
2022/02/01 18:33:17;;;;;;;44.70;27.15;;;6.20;99.90;;;;;;5063757;28;20406;-80
2022/02/01 18:35:47;;;;;;;40.03;24.95;;;6.10;99.90;;;;;;5064305;28;20032;-81
2022/02/01 18:38:15;;;;;;;37.22;22.85;;;6.10;99.90;;;;;;5060782;28;20024;-82
2022/02/01 18:40:56;;;;;;;33.53;23.02;;;6.10;99.90;;;;;;5089528;28;20510;-82
2022/02/01 18:43:28;;;;;;;26.00;16.20;;;6.00;99.90;;;;;;5066387;28;20562;-82
2022/02/01 18:46:07;;;;;;;26.38;13.20;;;6.00;99.90;;;;;;5063511;28;20536;-83
2022/02/01 18:48:35;;;;;;;16.40;11.02;;;6.10;99.90;;;;;;5081223;28;20016;-82
2022/02/01 18:51:13;;;;;;;19.55;10.75;;;6.10;99.90;;;;;;5070663;28;20062;-82
2022/02/01 18:56:40;;;;;;;15.27;9.52;;;6.20;99.90;;;;;;5081305;28;20128;-81
2022/02/01 18:59:12;;;;;;;14.15;8.75;;;6.20;99.90;;;;;;5079662;28;20025;-82
2022/02/01 19:05:00;;;;;;;11.63;7.22;;;6.20;99.90;;;;;;5079225;28;20149;-82
2022/02/01 19:12:38;;;;;;;9.43;6.03;;;6.10;99.90;;;;;;5078903;28;20222;-82
2022/02/01 19:15:06;;;;;;;8.40;6.30;;;6.10;99.90;;;;;;5080376;28;20629;-83
2022/02/01 19:17:32;;;;;;;9.30;5.60;;;6.10;99.90;;;;;;5088238;28;20118;-80
2022/02/01 19:20:05;;;;;;;7.25;5.45;;;6.10;99.90;;;;;;5083223;28;20020;-85
2022/02/01 19:22:34;;;;;;;7.90;4.63;;;6.00;99.90;;;;;;5086737;28;20044;-81
2022/02/01 19:25:01;;;;;;;9.65;5.47;;;6.00;99.90;;;;;;5071875;28;20036;-85
2022/02/01 19:27:29;;;;;;;10.00;5.65;;;5.90;99.90;;;;;;5067270;28;20024;-83
2022/02/01 19:29:58;;;;;;;11.27;6.32;;;5.90;99.90;;;;;;5077718;28;20020;-81
2022/02/01 19:32:36;;;;;;;7.18;5.53;;;5.90;99.90;;;;;;5087884;28;20485;-82
2022/02/01 19:35:10;;;;;;;11.07;5.60;;;5.90;99.90;;;;;;5084765;28;20119;-80
2022/02/01 19:37:36;;;;;;;9.23;5.13;;;5.90;99.90;;;;;;5087854;28;20016;-81
2022/02/01 19:40:04;;;;;;;7.07;5.07;;;5.90;99.90;;;;;;5097722;28;20371;-80
2022/02/01 19:42:35;;;;;;;9.05;4.82;;;5.80;99.90;;;;;;5082350;28;20035;-80
2022/02/01 19:45:14;;;;;;;6.60;4.53;;;5.80;99.90;;;;;;5090422;28;20255;-80
2022/02/01 19:47:40;;;;;;;7.32;4.32;;;5.80;99.90;;;;;;5090933;28;20047;-81
2022/02/01 19:50:08;;;;;;;8.57;4.45;;;5.80;99.90;;;;;;5092187;28;20495;-80
2022/02/01 19:52:37;;;;;;;6.40;4.65;;;5.70;99.90;;;;;;5078736;28;20021;-80
2022/02/01 19:55:06;;;;;;;6.95;4.53;;;5.80;99.90;;;;;;5087077;28;20390;-80
2022/02/01 19:57:33;;;;;;;7.22;4.80;;;5.80;99.90;;;;;;5084263;28;20027;-80
2022/02/01 20:00:12;;;;;;;9.93;4.70;;;5.80;99.90;;;;;;5084520;28;20066;-80
2022/02/01 20:02:39;;;;;;;6.03;4.47;;;5.70;99.90;;;;;;5082691;28;20025;-81
2022/02/01 20:05:09;;;;;;;7.40;4.93;;;5.70;99.90;;;;;;5079208;28;20546;-80
2022/02/01 20:07:36;;;;;;;7.35;4.57;;;5.60;99.90;;;;;;5077190;28;20028;-81
2022/02/01 20:10:08;;;;;;;6.10;4.18;;;5.60;99.90;;;;;;5065929;28;20035;-80
2022/02/01 20:12:39;;;;;;;6.93;5.20;;;5.50;99.90;;;;;;5081187;28;20051;-80
2022/02/01 20:15:16;;;;;;;8.73;5.25;;;5.50;99.90;;;;;;5081671;28;20036;-80
2022/02/01 20:17:54;;;;;;;6.18;4.50;;;5.40;99.90;;;;;;5087666;28;20056;-80
2022/02/01 20:20:23;;;;;;;6.18;4.70;;;5.40;99.90;;;;;;5090019;28;20141;-80
2022/02/01 20:22:56;;;;;;;7.22;4.88;;;5.30;99.90;;;;;;5086288;28;20024;-80
2022/02/01 20:25:28;;;;;;;8.18;4.75;;;5.30;99.90;;;;;;5084994;28;20024;-80
2022/02/01 20:27:58;;;;;;;9.48;5.18;;;5.20;99.90;;;;;;5065869;28;20078;-81
2022/02/01 20:30:28;;;;;;;8.27;4.75;;;5.20;99.90;;;;;;5083180;28;20111;-80
2022/02/01 20:32:55;;;;;;;7.43;4.60;;;5.20;99.90;;;;;;5070924;28;20035;-80
2022/02/01 20:35:24;;;;;;;8.07;4.57;;;5.20;99.90;;;;;;5081860;28;20069;-81
2022/02/01 20:37:52;;;;;;;7.00;4.95;;;5.20;99.90;;;;;;5073666;28;20024;-80
2022/02/01 20:40:26;;;;;;;8.57;4.70;;;5.20;99.90;;;;;;5094575;28;20028;-80
2022/02/01 20:42:52;;;;;;;8.88;5.50;;;5.10;99.90;;;;;;5065677;28;20483;-80
2022/02/01 20:45:23;;;;;;;8.65;5.32;;;5.10;99.90;;;;;;5088348;28;20039;-80
2022/02/01 20:47:49;;;;;;;8.50;5.13;;;5.10;99.90;;;;;;5082177;28;20498;-80
2022/02/01 20:50:15;;;;;;;9.35;5.53;;;5.00;99.90;;;;;;5087252;28;20113;-81
2022/02/01 20:52:41;;;;;;;6.70;4.50;;;5.00;99.90;;;;;;5073743;28;20110;-80
2022/02/01 20:55:11;;;;;;;9.93;4.75;;;4.90;99.90;;;;;;5088228;28;20043;-80
2022/02/01 20:57:37;;;;;;;7.57;5.13;;;4.90;99.90;;;;;;5081229;28;20016;-80
2022/02/01 21:00:07;;;;;;;8.93;5.60;;;4.80;99.90;;;;;;5080883;28;20605;-80
2022/02/01 21:02:34;;;;;;;16.60;7.82;;;4.80;99.90;;;;;;5086208;28;20028;-81
2022/02/01 21:05:00;;;;;;;15.65;8.57;;;4.70;99.90;;;;;;5065219;28;20029;-81
2022/02/01 21:07:26;;;;;;;12.07;6.18;;;4.70;99.90;;;;;;5074049;28;20081;-80
2022/02/01 21:09:52;;;;;;;12.25;5.88;;;4.60;99.90;;;;;;5070827;28;20044;-80
2022/02/01 21:12:23;;;;;;;9.98;5.68;;;4.60;99.90;;;;;;5066572;28;20038;-81
2022/02/01 21:14:52;;;;;;;15.82;9.10;;;4.50;99.90;;;;;;5066208;28;20040;-81
2022/02/01 21:17:27;;;;;;;10.52;6.88;;;4.50;99.90;;;;;;5065435;28;20028;-81
2022/02/01 21:20:04;;;;;;;9.60;6.53;;;4.50;99.90;;;;;;5070447;28;20483;-84